Huvudsida
METAR-TAF:

METAR-TAF

Flygplatser :

Västerås, Sverige

Stockholm-Västerås flygplats

latitud: 59-35N, longitud: 016-38E, höjd: 6 m

Aktuellt väderrapport

Denna rapport gjordes för 36 minuter sedan, klockan 02:50 UTC
Vind 5 kt från nord/nordost
Temperatur -4°C
Fuktighet 86%
Tryck 1000 hPa
Sikt 10 km eller mer

METAR: ESOW 190250Z AUTO 02005KT 9999 BKN040/// M04/M06 Q1000

Tid: 04:26 (03:26 UTC)

Väderprognos

Denna rapport gjordes för 12 timmar och 56 minuter sedan, klockan 14:30 UTC
Prognos gäller från 18 kl. 15 UTC till 18 kl. 18 UTC
Vind 8 kt från nordost
Sikt 10 km eller mer
Spridda moln på en höjd av 1500 ft
Mulet på en höjd av 3000 ft
Sannolikhet 40%
från 18 kl. 15 UTC till 18 kl. 18 UTC
Sikt: 2500 m
Mulet på en höjd av 800 ft
snö

TAF: ESOW 181430Z 1815/1818 05008KT 9999 SCT015 OVC030 PROB40 1815/1818 2500 SN OVC008

Aktuella väderrapporter och prognoser från 4000 flygplatser (METAR- och TAF-rapporter).

De tillgängliga stationerna syns som gula och röda prickar på kartan.

För musen över prickarna för att se namnen på stationerna.

Klicka sedan för att få väderrapporter och prognoser.

För att ändra kartan: Klicka på de gröna knapparna med ett svart kors på för att zooma in; den gröna knappen med ett streck på för att zooma ut; eller på de gröna pilarna för angränsande kartor.


METAR-TAF: